Time;durP1;ratioP1;P1;durP2;ratioP2;P2;SDS_P1;SDS_P2;PMS_P1;PMS_P2;Temp;Humidity;BMP_temperature;BMP_pressure;BME280_temperature;BME280_humidity;BME280_pressure;Samples;Min_cycle;Max_cycle;Signal;HPM_P1;HPM_P2
2023/05/30 00:00:28;;;;;;;18.45;4.40;;;;;;;14.28;58.17;102883.53;5090979;28;20048;-46
2023/05/30 00:02:54;;;;;;;15.02;4.55;;;;;;;14.40;57.94;102888.28;5090148;28;20031;-44
2023/05/30 00:05:20;;;;;;;15.05;4.15;;;;;;;14.37;57.98;102883.84;5091035;28;20028;-44
2023/05/30 00:07:46;;;;;;;18.90;4.15;;;;;;;14.34;58.14;102882.81;5090167;28;20050;-47
2023/05/30 00:10:12;;;;;;;17.35;4.35;;;;;;;14.26;58.33;102882.59;5090824;28;20024;-45
2023/05/30 00:12:40;;;;;;;13.98;4.45;;;;;;;14.36;57.94;102887.28;5090316;28;20039;-46
2023/05/30 00:15:06;;;;;;;14.15;4.03;;;;;;;14.18;58.56;102894.59;5089982;28;20024;-48
2023/05/30 00:17:32;;;;;;;15.18;4.40;;;;;;;14.60;57.37;102888.03;5090567;28;20596;-45
2023/05/30 00:19:58;;;;;;;16.35;4.57;;;;;;;14.30;58.17;102881.84;5090143;28;20104;-47
2023/05/30 00:22:23;;;;;;;15.30;4.50;;;;;;;14.52;57.96;102893.88;5089922;28;20039;-49
2023/05/30 00:24:49;;;;;;;17.88;4.45;;;;;;;14.51;57.85;102892.13;5090089;28;20027;-48
2023/05/30 00:27:15;;;;;;;13.55;4.20;;;;;;;14.33;58.24;102897.69;5089320;28;20039;-46
2023/05/30 00:29:41;;;;;;;15.93;4.15;;;;;;;14.60;57.28;102903.78;5090519;28;20032;-45
2023/05/30 00:32:06;;;;;;;16.75;4.10;;;;;;;14.53;57.52;102898.28;5090029;28;20028;-43
2023/05/30 00:34:31;;;;;;;19.25;4.43;;;;;;;14.44;57.91;102898.03;5090093;28;20035;-50
2023/05/30 00:36:57;;;;;;;17.35;4.22;;;;;;;14.55;57.46;102900.13;5090461;28;20059;-46
2023/05/30 00:39:22;;;;;;;13.95;4.38;;;;;;;14.30;58.35;102907.19;5091151;28;20074;-49
2023/05/30 00:41:47;;;;;;;19.80;4.72;;;;;;;14.36;57.96;102912.63;5091307;28;20067;-50
2023/05/30 00:44:12;;;;;;;15.63;4.22;;;;;;;14.17;58.51;102912.06;5091148;28;20402;-45
2023/05/30 00:46:38;;;;;;;16.20;3.90;;;;;;;14.54;57.51;102910.59;5091381;28;20031;-45
2023/05/30 00:49:03;;;;;;;14.75;4.40;;;;;;;14.49;57.77;102910.44;5090162;28;20040;-46
2023/05/30 00:51:31;;;;;;;20.65;4.50;;;;;;;14.39;58.07;102911.03;5090731;28;20036;-47
2023/05/30 00:53:58;;;;;;;11.63;4.03;;;;;;;14.55;57.63;102905.38;5090287;28;20486;-45
2023/05/30 00:56:23;;;;;;;15.68;4.30;;;;;;;14.56;57.49;102901.91;5091235;28;20032;-44
2023/05/30 00:58:52;;;;;;;13.73;4.10;;;;;;;13.93;59.33;102911.28;5089656;28;20071;-48
2023/05/30 01:01:19;;;;;;;14.38;4.00;;;;;;;14.15;58.39;102905.88;5090744;28;20048;-46
2023/05/30 01:03:47;;;;;;;17.30;4.55;;;;;;;14.14;58.77;102904.13;5089004;28;20051;-47
2023/05/30 01:06:13;;;;;;;14.30;4.47;;;;;;;14.41;57.89;102917.19;5089760;28;20058;-47
2023/05/30 01:08:38;;;;;;;14.02;4.40;;;;;;;14.25;58.36;102916.66;5089123;28;20032;-46
2023/05/30 01:11:44;;;;;;;15.32;4.03;;;;;;;14.05;58.90;102914.31;5089404;28;20119;-46
2023/05/30 01:14:15;;;;;;;;;;;;;;;14.33;57.88;102915.16;5074290;28;20599;-42
2023/05/30 01:16:46;;;;;;;13.98;3.90;;;;;;;14.22;58.26;102906.94;5089678;28;19912;-45
2023/05/30 01:19:21;;;;;;;14.80;4.30;;;;;;;13.87;59.42;102900.59;5089015;28;20063;-50
2023/05/30 01:21:47;;;;;;;16.35;4.38;;;;;;;13.91;59.08;102905.09;5089178;28;20047;-46
2023/05/30 01:24:23;;;;;;;19.60;5.15;;;;;;;13.92;59.08;102898.13;5088988;28;20039;-46
2023/05/30 01:26:55;;;;;;;16.50;4.68;;;;;;;13.86;59.46;102904.06;5089771;28;20044;-47
2023/05/30 01:29:23;;;;;;;17.17;4.15;;;;;;;14.10;58.52;102902.22;5090495;28;20047;-50
2023/05/30 01:31:49;;;;;;;13.65;4.50;;;;;;;13.87;59.49;102897.09;5089282;28;20135;-45
2023/05/30 01:34:15;;;;;;;13.20;4.43;;;;;;;14.02;58.93;102898.50;5088755;28;20043;-48
2023/05/30 01:36:40;;;;;;;13.80;4.45;;;;;;;13.90;59.21;102895.47;5089221;28;20036;-45
2023/05/30 01:39:06;;;;;;;13.95;4.50;;;;;;;13.97;58.92;102901.78;5088602;28;20032;-46
2023/05/30 01:41:45;;;;;;;15.15;4.32;;;;;;;13.93;59.25;102907.78;5089582;28;20043;-47
2023/05/30 01:44:22;;;;;;;14.43;4.47;;;;;;;13.91;59.29;102902.47;5072195;28;20028;-50
2023/05/30 01:46:58;;;;;;;21.63;4.82;;;;;;;13.66;59.99;102905.16;5089942;28;20131;-44
2023/05/30 01:50:01;;;;;;;14.18;4.40;;;;;;;13.96;58.98;102906.16;5091273;28;20040;-44
2023/05/30 01:52:33;;;;;;;13.77;4.25;;;;;;;13.92;58.86;102903.38;5013586;28;20040;-46
2023/05/30 01:55:04;;;;;;;12.23;4.03;;;;;;;13.84;59.29;102902.25;5086993;28;20051;-45
2023/05/30 01:57:30;;;;;;;12.93;4.15;;;;;;;13.91;58.76;102910.34;5089290;28;20122;-49
2023/05/30 01:59:57;;;;;;;15.73;4.70;;;;;;;13.85;59.48;102914.50;5088737;28;20294;-45
2023/05/30 02:02:23;;;;;;;13.23;4.10;;;;;;;13.79;59.41;102908.22;5089073;28;20066;-46
2023/05/30 02:04:48;;;;;;;14.80;4.40;;;;;;;13.87;59.09;102904.97;5088576;28;20060;-43
2023/05/30 02:07:13;;;;;;;13.52;4.30;;;;;;;13.89;59.00;102906.81;5086942;28;20119;-45
2023/05/30 02:09:40;;;;;;;14.35;4.38;;;;;;;13.75;59.64;102911.59;5089507;28;20044;-44
2023/05/30 02:12:06;;;;;;;13.73;4.20;;;;;;;13.73;59.51;102915.88;5088525;28;20441;-46
2023/05/30 02:14:31;;;;;;;11.38;3.78;;;;;;;13.73;59.73;102915.00;5088817;28;20036;-46
2023/05/30 02:16:59;;;;;;;14.35;4.28;;;;;;;13.67;59.95;102914.78;5088617;28;20177;-45
2023/05/30 02:19:25;;;;;;;10.68;3.85;;;;;;;13.68;59.66;102919.19;5089667;28;20051;-46
2023/05/30 02:21:50;;;;;;;15.05;4.40;;;;;;;13.67;59.84;102923.53;5092494;28;20035;-45
2023/05/30 02:24:15;;;;;;;12.70;4.00;;;;;;;13.67;59.82;102920.91;5092447;28;20039;-48
2023/05/30 02:26:41;;;;;;;11.40;3.95;;;;;;;13.66;60.11;102924.38;5092902;28;20044;-46
2023/05/30 02:29:06;;;;;;;13.00;4.43;;;;;;;13.69;60.30;102927.13;5092158;28;20024;-46
2023/05/30 02:31:31;;;;;;;16.58;4.50;;;;;;;13.75;60.65;102926.44;5092849;28;20487;-48
2023/05/30 02:33:56;;;;;;;15.75;4.40;;;;;;;13.86;60.75;102919.78;5091677;28;20032;-45
2023/05/30 02:36:22;;;;;;;15.48;4.07;;;;;;;13.97;60.49;102922.75;5093231;28;20119;-46
2023/05/30 02:38:47;;;;;;;12.70;4.85;;;;;;;14.12;60.46;102929.41;5091915;28;20042;-46
2023/05/30 02:41:13;;;;;;;15.80;4.47;;;;;;;13.93;61.17;102918.25;5092656;28;20034;-45
2023/05/30 02:43:41;;;;;;;11.48;4.07;;;;;;;14.00;61.28;102929.00;5092267;28;20552;-47
2023/05/30 02:46:06;;;;;;;12.23;4.40;;;;;;;14.14;60.94;102924.22;5092443;28;20036;-45
2023/05/30 02:48:31;;;;;;;13.82;4.10;;;;;;;14.36;60.27;102933.63;5093693;28;20020;-45
2023/05/30 02:50:57;;;;;;;14.82;4.60;;;;;;;14.39;60.22;102932.03;5096099;28;20042;-44
2023/05/30 02:53:22;;;;;;;12.05;4.38;;;;;;;14.31;60.62;102933.47;5093357;28;20032;-49
2023/05/30 02:55:48;;;;;;;13.30;4.30;;;;;;;14.58;60.14;102934.34;5091692;28;20036;-44
2023/05/30 02:58:14;;;;;;;12.02;4.10;;;;;;;14.72;59.68;102936.47;5092014;28;20028;-46
2023/05/30 03:00:40;;;;;;;14.02;4.20;;;;;;;14.90;59.21;102929.13;5092070;28;20177;-45
2023/05/30 03:03:07;;;;;;;12.73;3.95;;;;;;;14.94;58.89;102921.38;5073165;28;20076;-44
2023/05/30 03:05:34;;;;;;;12.50;4.00;;;;;;;14.94;58.92;102929.25;5092314;28;20036;-51
2023/05/30 03:08:00;;;;;;;8.07;4.05;;;;;;;14.94;59.26;102928.38;5090392;28;20500;-46
2023/05/30 03:10:25;;;;;;;12.45;3.67;;;;;;;15.02;58.80;102926.84;5091989;28;20040;-44
2023/05/30 03:12:50;;;;;;;8.57;4.05;;;;;;;15.02;59.35;102919.84;5090853;28;20520;-44
2023/05/30 03:15:16;;;;;;;12.02;4.40;;;;;;;15.11;59.10;102924.50;5091866;28;20032;-47
2023/05/30 03:17:41;;;;;;;10.10;3.83;;;;;;;15.18;59.04;102922.91;5091889;28;20509;-44
2023/05/30 03:20:08;;;;;;;11.45;3.90;;;;;;;14.66;59.90;102923.16;5091574;28;20043;-44
2023/05/30 03:22:34;;;;;;;9.38;4.28;;;;;;;15.09;58.77;102926.16;5091756;28;20131;-46
2023/05/30 03:24:59;;;;;;;10.95;4.10;;;;;;;15.01;58.91;102932.94;5091410;28;20073;-43
2023/05/30 03:27:25;;;;;;;11.05;4.22;;;;;;;14.78;59.29;102929.66;5091085;28;20032;-45
2023/05/30 03:29:52;;;;;;;10.82;4.22;;;;;;;14.90;59.10;102923.88;5091056;28;20035;-49
2023/05/30 03:32:17;;;;;;;15.52;4.20;;;;;;;15.11;57.79;102923.59;5091359;28;20038;-47
2023/05/30 03:34:45;;;;;;;12.13;4.03;;;;;;;15.19;57.67;102932.56;5092017;28;20032;-45
2023/05/30 03:37:10;;;;;;;10.48;4.32;;;;;;;15.39;57.08;102921.72;5091390;28;20039;-45
2023/05/30 03:39:36;;;;;;;10.43;4.28;;;;;;;15.59;56.40;102930.19;5093089;28;20456;-46
2023/05/30 03:42:01;;;;;;;10.75;4.22;;;;;;;15.44;56.63;102930.63;5091805;28;20452;-45
2023/05/30 03:44:27;;;;;;;13.32;4.45;;;;;;;15.39;56.99;102933.97;5094195;28;20032;-49
2023/05/30 03:46:52;;;;;;;13.73;4.70;;;;;;;15.28;57.26;102935.44;5093575;28;20028;-46
2023/05/30 03:49:17;;;;;;;11.50;4.15;;;;;;;15.33;57.24;102932.09;5093100;28;20028;-45
2023/05/30 03:51:43;;;;;;;12.27;4.15;;;;;;;15.36;56.86;102926.94;5093956;28;20035;-44
2023/05/30 03:54:08;;;;;;;9.13;4.40;;;;;;;15.32;56.95;102932.94;5093631;28;20055;-44
2023/05/30 03:56:33;;;;;;;11.30;4.57;;;;;;;15.21;57.24;102936.13;5093866;28;20122;-47
2023/05/30 03:58:59;;;;;;;12.70;4.85;;;;;;;15.61;56.09;102932.84;5092591;28;20045;-44
2023/05/30 04:01:24;;;;;;;10.85;4.50;;;;;;;15.32;55.94;102934.66;5092620;28;20092;-46
2023/05/30 04:03:49;;;;;;;14.82;5.55;;;;;;;15.23;56.98;102937.97;5091993;28;20490;-50
2023/05/30 04:06:15;;;;;;;11.93;5.00;;;;;;;15.37;56.13;102943.56;5092569;28;20050;-45
2023/05/30 04:08:40;;;;;;;8.52;4.47;;;;;;;15.52;56.07;102944.00;5092244;28;20028;-50
2023/05/30 04:11:07;;;;;;;11.95;4.65;;;;;;;15.50;55.42;102939.50;5092099;28;20032;-45
2023/05/30 04:13:32;;;;;;;14.23;5.00;;;;;;;15.76;54.68;102941.09;5091073;28;20085;-47
2023/05/30 04:16:00;;;;;;;15.75;4.60;;;;;;;15.59;54.75;102943.31;5090815;28;20044;-45
2023/05/30 04:18:25;;;;;;;13.13;4.82;;;;;;;15.50;54.92;102943.03;5090716;28;20039;-45
2023/05/30 04:20:51;;;;;;;9.13;4.63;;;;;;;15.29;55.16;102939.84;5091099;28;20127;-47
2023/05/30 04:23:16;;;;;;;11.82;5.10;;;;;;;15.60;54.52;102942.47;5090386;28;20115;-45
2023/05/30 04:25:44;;;;;;;13.27;5.15;;;;;;;15.54;54.61;102946.69;5090874;28;20421;-47
2023/05/30 04:28:12;;;;;;;13.07;5.50;;;;;;;15.69;54.28;102944.44;5090393;28;20032;-47
2023/05/30 04:30:38;;;;;;;14.27;5.20;;;;;;;15.67;54.39;102940.91;5090650;28;20469;-45
2023/05/30 04:33:04;;;;;;;14.35;5.30;;;;;;;15.75;54.33;102953.38;5089571;28;20166;-50
2023/05/30 04:35:30;;;;;;;10.18;4.78;;;;;;;15.78;54.29;102956.09;5090308;28;20115;-45
2023/05/30 04:37:56;;;;;;;9.55;4.95;;;;;;;15.37;54.75;102954.97;5071770;28;20132;-48
2023/05/30 04:40:22;;;;;;;11.90;4.60;;;;;;;15.38;55.66;102956.75;5090385;28;20051;-45
2023/05/30 04:42:51;;;;;;;11.48;4.90;;;;;;;15.43;55.32;102955.13;5088607;28;20032;-48
2023/05/30 04:45:18;;;;;;;9.20;4.97;;;;;;;15.64;54.59;102959.22;5090145;28;20494;-45
2023/05/30 04:47:46;;;;;;;10.95;4.85;;;;;;;15.88;54.04;102956.28;5090225;28;20470;-45
2023/05/30 04:50:14;;;;;;;12.18;5.22;;;;;;;15.74;54.23;102956.84;5073540;28;20039;-46
2023/05/30 04:52:40;;;;;;;16.02;5.43;;;;;;;15.82;54.39;102964.94;5089902;28;20078;-46
2023/05/30 04:55:05;;;;;;;11.95;4.65;;;;;;;16.16;53.57;102956.13;5090814;28;20549;-44
2023/05/30 04:57:31;;;;;;;11.35;5.13;;;;;;;16.12;53.60;102952.50;5092426;28;20040;-46
2023/05/30 04:59:57;;;;;;;16.90;5.18;;;;;;;16.13;53.48;102951.66;5090513;28;20036;-51
2023/05/30 05:02:22;;;;;;;13.88;4.68;;;;;;;16.04;53.96;102961.97;5072020;28;20043;-48
2023/05/30 05:04:47;;;;;;;13.18;4.95;;;;;;;15.93;54.48;102959.94;5090227;28;20105;-49
2023/05/30 05:07:12;;;;;;;10.13;4.50;;;;;;;15.85;54.46;102972.91;5091937;28;20027;-48
2023/05/30 05:09:38;;;;;;;12.00;5.00;;;;;;;16.06;53.50;102967.28;5092065;28;20513;-45
2023/05/30 05:12:03;;;;;;;10.63;4.45;;;;;;;16.21;53.45;102968.53;5089375;28;20029;-47
2023/05/30 05:14:29;;;;;;;9.25;4.25;;;;;;;16.05;53.39;102958.47;5089195;28;20036;-48
2023/05/30 05:16:54;;;;;;;11.98;4.68;;;;;;;16.19;52.98;102957.06;5089166;28;20036;-45
2023/05/30 05:19:20;;;;;;;9.35;4.53;;;;;;;16.30;52.93;102962.56;5089711;28;20379;-46
2023/05/30 05:21:45;;;;;;;17.08;5.18;;;;;;;16.23;52.69;102958.91;5089640;28;20040;-45
2023/05/30 05:24:11;;;;;;;14.60;5.18;;;;;;;15.94;53.71;102964.34;5089343;28;20028;-47
2023/05/30 05:26:36;;;;;;;8.85;4.63;;;;;;;16.46;52.43;102961.19;5089780;28;20036;-45
2023/05/30 05:29:01;;;;;;;12.15;4.78;;;;;;;16.41;52.36;102968.97;5089087;28;20082;-44
2023/05/30 05:31:27;;;;;;;14.68;5.38;;;;;;;16.60;52.07;102965.03;5089843;28;20032;-44
2023/05/30 05:33:52;;;;;;;9.88;4.75;;;;;;;16.70;51.84;102968.78;5088570;28;20417;-44
2023/05/30 05:36:19;;;;;;;12.15;4.72;;;;;;;17.04;49.54;102953.69;5089690;28;20039;-46
2023/05/30 05:38:44;;;;;;;11.95;4.85;;;;;;;17.29;48.83;102959.44;5089493;28;20040;-46
2023/05/30 05:41:09;;;;;;;12.55;4.75;;;;;;;17.65;48.26;102967.16;5089776;28;20039;-46
2023/05/30 05:43:36;;;;;;;11.88;4.65;;;;;;;17.57;47.90;102963.44;5089713;28;20060;-48
2023/05/30 05:46:01;;;;;;;8.68;4.35;;;;;;;17.45;47.76;102964.13;5089173;28;20039;-46
2023/05/30 05:48:26;;;;;;;10.02;4.40;;;;;;;17.59;47.39;102967.00;5089355;28;20124;-45
2023/05/30 05:50:52;;;;;;;11.27;4.68;;;;;;;17.65;47.55;102959.25;5089156;28;20036;-44
2023/05/30 05:53:17;;;;;;;20.15;5.18;;;;;;;17.55;47.67;102966.09;5089564;28;20028;-45
2023/05/30 05:55:44;;;;;;;11.68;4.97;;;;;;;17.09;48.53;102973.97;5093698;28;20436;-44
2023/05/30 05:58:09;;;;;;;12.95;5.18;;;;;;;17.02;48.35;102965.94;5093260;28;20039;-46
2023/05/30 06:00:35;;;;;;;15.57;4.97;;;;;;;17.00;48.10;102962.41;5098742;28;20061;-44
2023/05/30 06:03:00;;;;;;;13.65;5.45;;;;;;;17.17;47.59;102965.38;5100443;28;20615;-44
2023/05/30 06:05:25;;;;;;;16.17;5.25;;;;;;;17.06;48.28;102972.19;5103075;28;20032;-46
2023/05/30 06:07:51;;;;;;;16.40;4.97;;;;;;;17.11;48.08;102972.25;5092897;28;20028;-47
2023/05/30 06:10:16;;;;;;;16.73;5.40;;;;;;;17.03;48.38;102966.81;5093066;28;20107;-44
2023/05/30 06:12:42;;;;;;;12.73;5.00;;;;;;;16.78;49.09;102970.69;5092909;28;20032;-51
2023/05/30 06:15:07;;;;;;;13.05;4.57;;;;;;;16.70;49.52;102971.41;5092427;28;20032;-50
2023/05/30 06:17:34;;;;;;;12.25;4.60;;;;;;;17.23;48.18;102969.84;5093355;28;20078;-47
2023/05/30 06:19:59;;;;;;;15.02;5.47;;;;;;;17.21;48.04;102963.66;5092847;28;20037;-44
2023/05/30 06:22:24;;;;;;;16.95;5.63;;;;;;;17.21;47.76;102971.56;5093151;28;20032;-48
2023/05/30 06:24:50;;;;;;;11.73;5.43;;;;;;;17.42;47.89;102975.53;5092496;28;20040;-49
2023/05/30 06:27:15;;;;;;;13.23;5.18;;;;;;;17.49;47.68;102968.59;5093139;28;20035;-50
2023/05/30 06:29:41;;;;;;;12.60;5.00;;;;;;;17.56;47.48;102973.13;5092947;28;20678;-45
2023/05/30 06:32:08;;;;;;;15.35;5.20;;;;;;;17.26;47.89;102973.44;5092625;28;20383;-49
2023/05/30 06:34:33;;;;;;;14.82;5.40;;;;;;;17.70;46.97;102968.13;5092630;28;20036;-45
2023/05/30 06:36:59;;;;;;;17.45;5.57;;;;;;;17.60;46.89;102975.00;5092359;28;20043;-45
2023/05/30 06:39:24;;;;;;;16.05;5.60;;;;;;;17.78;46.92;102980.59;5092604;28;20069;-48
2023/05/30 06:41:50;;;;;;;13.48;5.80;;;;;;;17.91;46.69;102978.16;5092503;28;20125;-44
2023/05/30 06:44:15;;;;;;;13.23;5.40;;;;;;;18.19;45.90;102983.00;5092464;28;20035;-49
2023/05/30 06:46:41;;;;;;;17.13;5.78;;;;;;;18.18;45.86;102987.41;5092380;28;20036;-47
2023/05/30 06:49:06;;;;;;;16.17;5.50;;;;;;;17.91;45.88;102994.88;5092149;28;20485;-44
2023/05/30 06:51:31;;;;;;;16.30;5.57;;;;;;;18.17;45.57;102987.41;5092956;28;20127;-44
2023/05/30 06:53:57;;;;;;;15.02;5.40;;;;;;;18.55;45.07;102991.50;5091550;28;20040;-47
2023/05/30 06:56:22;;;;;;;14.15;5.50;;;;;;;18.60;45.06;102988.94;5092434;28;20040;-48
2023/05/30 06:58:48;;;;;;;13.77;5.10;;;;;;;18.69;44.38;102982.88;5091515;28;20294;-48
2023/05/30 07:01:13;;;;;;;15.68;5.40;;;;;;;19.05;43.95;102993.91;5092464;28;20047;-44
2023/05/30 07:03:38;;;;;;;19.05;4.90;;;;;;;19.25;42.69;102988.88;5091973;28;20112;-50
2023/05/30 07:06:03;;;;;;;19.45;5.18;;;;;;;19.24;43.60;102987.09;5071617;28;21579;-45
2023/05/30 07:08:29;;;;;;;17.42;5.00;;;;;;;19.06;42.38;102993.06;5071363;28;20039;-45
2023/05/30 07:10:55;;;;;;;13.70;4.82;;;;;;;18.81;43.58;102990.97;5070748;28;20037;-49
2023/05/30 07:13:20;;;;;;;18.02;4.95;;;;;;;19.12;42.99;102993.13;5071198;28;20039;-47
2023/05/30 07:15:46;;;;;;;14.18;4.78;;;;;;;18.80;43.75;102983.91;5070952;28;20037;-46
2023/05/30 07:18:12;;;;;;;15.60;4.97;;;;;;;18.30;45.46;102988.47;5071816;28;20028;-47
2023/05/30 07:20:37;;;;;;;15.90;5.03;;;;;;;18.56;44.78;102988.00;5071424;28;20039;-44
2023/05/30 07:23:02;;;;;;;12.43;4.80;;;;;;;18.71;44.49;102986.44;5070262;28;20459;-45
2023/05/30 07:25:28;;;;;;;13.88;4.63;;;;;;;18.93;44.11;102991.13;5070973;28;20086;-44
2023/05/30 07:27:53;;;;;;;16.92;4.97;;;;;;;19.05;43.18;102997.44;5052755;28;20059;-45
2023/05/30 07:30:18;;;;;;;15.75;5.22;;;;;;;18.94;43.74;102998.19;5074829;22;20044;-41
2023/05/30 07:32:44;;;;;;;14.50;5.13;;;;;;;18.88;43.91;102982.25;5057431;28;20032;-44
2023/05/30 07:35:09;;;;;;;15.85;5.35;;;;;;;19.13;44.01;102986.09;5054489;28;20040;-40
2023/05/30 07:37:36;;;;;;;13.23;4.85;;;;;;;19.79;42.85;102975.31;5054884;28;20037;-41
2023/05/30 07:40:07;;;;;;;14.30;4.80;;;;;;;19.92;41.55;102965.72;5053898;28;20037;-41
2023/05/30 07:42:34;;;;;;;16.38;4.60;;;;;;;20.39;40.86;102974.03;5068771;28;20086;-46
2023/05/30 07:45:00;;;;;;;10.07;4.25;;;;;;;21.45;39.06;102974.50;5071996;28;20036;-41
2023/05/30 07:47:25;;;;;;;11.60;4.20;;;;;;;22.60;36.68;102971.78;5072159;28;20616;-41
2023/05/30 07:49:50;;;;;;;11.52;4.28;;;;;;;23.18;35.37;102971.53;5070373;28;20128;-43
2023/05/30 07:52:16;;;;;;;14.05;4.43;;;;;;;22.95;34.71;102976.09;5070699;28;20059;-41
2023/05/30 07:54:41;;;;;;;11.77;4.30;;;;;;;23.39;33.94;102981.19;5070466;28;20028;-40
2023/05/30 07:57:07;;;;;;;16.08;4.47;;;;;;;23.26;34.82;102980.38;5070183;28;20398;-42
2023/05/30 07:59:32;;;;;;;9.45;4.00;;;;;;;23.78;33.73;102972.94;5071258;28;20036;-41
2023/05/30 08:01:57;;;;;;;11.95;4.40;;;;;;;24.35;32.89;102975.97;5070337;28;20037;-44
2023/05/30 08:04:23;;;;;;;10.10;3.70;;;;;;;25.28;31.87;102975.72;5069401;28;20483;-41
2023/05/30 08:06:48;;;;;;;12.25;4.68;;;;;;;24.99;31.66;102985.91;5032202;28;20051;-43
2023/05/30 08:09:13;;;;;;;15.75;4.80;;;;;;;23.53;33.41;102978.47;5031351;28;20034;-42
2023/05/30 08:11:39;;;;;;;12.75;4.72;;;;;;;23.35;33.39;102968.78;5031065;28;20037;-40
2023/05/30 08:14:04;;;;;;;14.30;4.70;;;;;;;22.37;35.03;102975.38;5030162;28;20033;-41
2023/05/30 08:16:30;;;;;;;13.02;4.60;;;;;;;22.55;35.12;102973.56;5030457;28;20029;-45
2023/05/30 08:18:56;;;;;;;13.13;4.68;;;;;;;22.24;35.91;102980.72;5030408;28;20038;-43
2023/05/30 08:21:21;;;;;;;12.13;4.80;;;;;;;22.00;37.09;102967.47;5029799;28;20196;-41
2023/05/30 08:23:47;;;;;;;11.70;4.72;;;;;;;22.82;35.09;102975.25;5028879;28;20137;-43
2023/05/30 08:26:12;;;;;;;14.38;4.80;;;;;;;22.31;35.54;102960.34;5030005;28;20099;-43
2023/05/30 08:28:38;;;;;;;12.60;4.70;;;;;;;23.18;35.04;102963.56;5030423;28;20416;-41
2023/05/30 08:31:05;;;;;;;11.48;4.60;;;;;;;23.16;35.00;102967.13;5029957;28;20049;-44
2023/05/30 08:33:32;;;;;;;11.95;4.60;;;;;;;22.54;35.92;102961.16;5030276;28;20034;-44
2023/05/30 08:35:57;;;;;;;10.73;4.40;;;;;;;22.53;37.01;102962.03;5029943;28;20037;-42
2023/05/30 08:38:23;;;;;;;12.93;4.88;;;;;;;22.55;36.61;102954.97;5030991;28;20033;-42
2023/05/30 08:40:51;;;;;;;14.38;5.00;;;;;;;22.16;36.92;102960.38;5030362;28;20670;-42
2023/05/30 08:43:17;;;;;;;13.85;4.82;;;;;;;21.73;37.61;102946.19;5030924;28;20099;-41
2023/05/30 08:45:43;;;;;;;15.23;4.80;;;;;;;21.61;38.41;102951.50;5030603;28;20037;-42
2023/05/30 08:48:10;;;;;;;12.00;4.78;;;;;;;21.72;38.06;102950.63;5030662;28;20029;-42
2023/05/30 08:50:36;;;;;;;14.30;5.18;;;;;;;21.25;39.12;102953.22;5030438;28;20090;-46
2023/05/30 08:53:07;;;;;;;12.57;5.25;;;;;;;21.23;38.53;102947.03;5029345;28;20407;-41
2023/05/30 08:55:40;;;;;;;14.60;4.80;;;;;;;20.87;40.19;102946.88;5029671;28;20037;-43
2023/05/30 08:58:29;;;;;;;11.60;4.40;;;;;;;20.83;39.38;102943.34;5030227;28;20029;-47
2023/05/30 09:00:55;;;;;;;13.40;4.72;;;;;;;21.48;38.37;102945.28;5029331;28;20495;-41
2023/05/30 09:03:22;;;;;;;14.68;5.00;;;;;;;21.10;38.99;102946.97;5034719;28;20036;-44
2023/05/30 09:05:49;;;;;;;12.82;4.82;;;;;;;21.44;38.69;102938.22;5039380;28;20033;-43
2023/05/30 09:08:15;;;;;;;14.25;4.70;;;;;;;21.35;38.19;102933.78;5038281;28;20029;-42
2023/05/30 09:10:48;;;;;;;13.70;5.00;;;;;;;19.83;41.76;102933.00;5038818;28;20492;-44
2023/05/30 09:13:15;;;;;;;11.98;4.93;;;;;;;20.67;40.46;102933.56;5029693;28;20044;-42
2023/05/30 09:15:40;;;;;;;15.45;5.05;;;;;;;21.00;40.21;102927.47;5030585;28;20459;-42
2023/05/30 09:18:05;;;;;;;12.70;4.85;;;;;;;20.72;39.96;102929.16;5030718;28;20030;-42
2023/05/30 09:20:31;;;;;;;11.85;4.95;;;;;;;20.30;41.36;102923.63;5032784;28;20124;-42
2023/05/30 09:22:58;;;;;;;11.45;4.93;;;;;;;20.81;40.55;102921.22;5032864;28;20036;-41
2023/05/30 09:25:24;;;;;;;13.85;4.88;;;;;;;20.60;40.77;102926.47;5033183;28;20121;-43
2023/05/30 09:27:51;;;;;;;12.75;4.90;;;;;;;20.55;41.27;102928.22;5029036;28;20141;-41
2023/05/30 09:30:17;;;;;;;15.40;5.13;;;;;;;20.50;42.13;102938.78;5029189;28;20389;-39
2023/05/30 09:32:43;;;;;;;19.35;5.30;;;;;;;20.09;41.36;102925.25;5028906;28;20132;-40
2023/05/30 09:35:12;;;;;;;12.50;5.30;;;;;;;20.07;41.65;102923.47;5028913;28;20037;-40
2023/05/30 09:37:41;;;;;;;12.55;4.90;;;;;;;20.03;41.28;102921.69;5029357;28;20060;-46
2023/05/30 09:40:06;;;;;;;13.25;5.13;;;;;;;20.17;41.24;102931.50;5028483;28;20060;-44
2023/05/30 09:42:41;;;;;;;14.25;4.80;;;;;;;20.71;40.82;102915.91;5029058;28;20792;-45
2023/05/30 09:45:11;;;;;;;15.55;5.20;;;;;;;20.99;40.04;102923.06;5028495;28;20120;-41
2023/05/30 09:47:39;;;;;;;11.45;4.78;;;;;;;21.09;39.74;102932.81;5029332;28;20088;-41
2023/05/30 09:50:05;;;;;;;16.70;5.65;;;;;;;20.77;40.66;102916.81;5029084;28;20096;-45
2023/05/30 09:52:31;;;;;;;16.27;5.38;;;;;;;21.48;39.45;102910.78;5027674;28;20064;-40
2023/05/30 09:54:56;;;;;;;13.13;5.03;;;;;;;21.81;38.51;102917.88;5028859;28;20522;-43
2023/05/30 09:57:25;;;;;;;11.57;5.00;;;;;;;21.74;38.40;102922.31;5029233;28;20072;-41
2023/05/30 09:59:50;;;;;;;8.93;4.72;;;;;;;22.46;38.19;102925.72;5028432;28;20037;-43
2023/05/30 10:02:22;;;;;;;11.10;5.30;;;;;;;21.81;38.17;102926.72;5029158;28;20029;-45
2023/05/30 10:04:51;;;;;;;11.27;4.90;;;;;;;21.96;38.76;102925.84;5028613;28;20045;-44
2023/05/30 10:07:20;;;;;;;13.07;5.30;;;;;;;21.50;40.99;102924.97;5029221;28;20099;-38
2023/05/30 10:09:48;;;;;;;12.13;5.32;;;;;;;21.64;39.42;102915.25;5028051;28;20416;-44
2023/05/30 10:12:14;;;;;;;12.93;5.63;;;;;;;21.72;38.49;102916.09;5028062;28;20381;-40
2023/05/30 10:14:39;;;;;;;12.70;5.60;;;;;;;21.38;39.37;102924.94;5028496;28;20041;-42
2023/05/30 10:17:07;;;;;;;11.60;5.35;;;;;;;21.20;40.79;102922.28;5026609;28;20407;-44
2023/05/30 10:19:43;;;;;;;12.00;5.70;;;;;;;20.16;43.15;102918.25;5028833;28;20064;-45
2023/05/30 10:22:09;;;;;;;12.48;5.38;;;;;;;21.03;41.95;102920.44;5028361;28;20539;-43
2023/05/30 10:24:37;;;;;;;14.30;5.80;;;;;;;21.08;42.55;102922.22;5028498;28;20168;-38
2023/05/30 10:27:03;;;;;;;13.00;5.88;;;;;;;21.20;42.05;102915.19;5028473;28;20041;-41
2023/05/30 10:29:36;;;;;;;11.07;5.38;;;;;;;21.75;40.73;102923.19;5028272;28;20422;-40
2023/05/30 10:32:03;;;;;;;11.40;5.63;;;;;;;21.29;40.97;102928.47;5028297;28;20033;-42
2023/05/30 10:34:41;;;;;;;10.60;5.53;;;;;;;20.77;43.51;102931.84;5028550;28;20064;-42
2023/05/30 10:37:07;;;;;;;7.50;4.78;;;;;;;21.14;43.27;102930.19;5028695;28;20527;-42
2023/05/30 10:40:06;;;;;;;10.48;5.75;;;;;;;21.09;43.22;102924.88;5029025;28;20042;-38
2023/05/30 10:42:47;;;;;;;12.38;5.60;;;;;;;20.71;43.51;102935.34;5042837;28;20059;-43
2023/05/30 10:45:18;;;;;;;9.20;5.22;;;;;;;20.93;43.58;102931.88;5052626;28;20033;-41
2023/05/30 10:47:56;;;;;;;9.57;5.10;;;;;;;21.55;42.90;102920.53;5052914;28;20033;-45
2023/05/30 10:50:31;;;;;;;12.57;4.95;;;;;;;21.33;42.97;102927.59;5052445;28;20037;-43
2023/05/30 10:52:57;;;;;;;8.73;4.90;;;;;;;21.97;41.97;102932.94;5051236;28;20041;-39
2023/05/30 10:55:24;;;;;;;10.48;5.05;;;;;;;21.62;42.06;102919.66;5052025;28;20037;-46
2023/05/30 10:57:50;;;;;;;12.00;5.32;;;;;;;21.03;43.02;102932.81;5051709;28;20071;-45
2023/05/30 11:00:23;;;;;;;12.25;5.55;;;;;;;20.84;44.28;102931.88;5052193;28;20129;-43
2023/05/30 11:02:51;;;;;;;9.43;5.30;;;;;;;21.38;43.82;102925.84;5049843;28;20037;-43
2023/05/30 11:05:22;;;;;;;8.98;4.97;;;;;;;21.68;42.33;102919.66;5051903;28;20116;-46
2023/05/30 11:07:47;;;;;;;11.38;5.22;;;;;;;21.05;43.60;102917.75;5051410;28;20075;-42
2023/05/30 11:10:14;;;;;;;9.60;5.03;;;;;;;20.95;44.93;102930.13;5051968;28;20067;-40
2023/05/30 11:12:43;;;;;;;12.02;5.88;;;;;;;20.42;46.05;102932.56;5051910;28;20048;-43
2023/05/30 11:15:16;;;;;;;10.82;6.75;;;;;;;20.70;45.61;102930.91;5051991;28;20029;-42
2023/05/30 11:17:42;;;;;;;8.27;5.85;;;;;;;20.80;44.82;102921.25;5052322;28;20510;-41